Time;durP1;ratioP1;P1;durP2;ratioP2;P2;SDS_P1;SDS_P2;PMS_P1;PMS_P2;Temp;Humidity;BMP_temperature;BMP_pressure;BME280_temperature;BME280_humidity;BME280_pressure;Samples;Min_cycle;Max_cycle;Signal;HPM_P1;HPM_P2
2023/07/07 00:01:09;;;;;;;;;;;14.80;98.40;;;;;;5083215;28;19924;-43
2023/07/07 00:03:36;;;;;;;;;;;14.80;98.40;;;;;;5076544;28;19932;-43
2023/07/07 00:06:03;;;;;;;;;;;14.80;98.60;;;;;;5078346;28;20028;-43
2023/07/07 00:08:29;;;;;;;;;;;14.80;98.80;;;;;;5081907;28;19928;-43
2023/07/07 00:10:58;;;;;;;;;;;14.70;98.70;;;;;;5072311;28;19925;-43
2023/07/07 00:13:25;;;;;;;;;;;14.70;98.90;;;;;;5077820;28;19939;-43
2023/07/07 00:15:52;;;;;;;;;;;14.60;98.90;;;;;;5080966;28;20293;-43
2023/07/07 00:18:26;;;;;;;;;;;14.60;98.90;;;;;;5071061;28;19935;-44
2023/07/07 00:20:53;;;;;;;;;;;14.60;99.10;;;;;;5080552;28;20291;-43
2023/07/07 00:23:19;;;;;;;;;;;14.50;99.10;;;;;;5080321;28;19928;-43
2023/07/07 00:25:46;;;;;;;;;;;14.50;99.20;;;;;;5080130;28;19932;-42
2023/07/07 00:28:14;;;;;;;;;;;14.50;99.40;;;;;;5099119;27;19924;-44
2023/07/07 00:30:41;;;;;;;;;;;14.40;99.50;;;;;;5077186;28;19939;-43
2023/07/07 00:33:07;;;;;;;;;;;14.40;99.60;;;;;;5083289;28;19974;-43
2023/07/07 00:35:34;;;;;;;;;;;14.40;99.70;;;;;;5080683;28;19937;-43
2023/07/07 00:38:01;;;;;;;;;;;14.40;99.80;;;;;;5083000;28;19997;-44
2023/07/07 00:40:27;;;;;;;;;;;14.40;99.90;;;;;;5077458;28;20391;-43
2023/07/07 00:42:54;;;;;;;;;;;14.30;99.90;;;;;;5077241;28;20346;-43
2023/07/07 00:45:22;;;;;;;;;;;14.30;99.90;;;;;;5080980;28;19958;-43
2023/07/07 00:47:51;;;;;;;;;;;14.30;99.90;;;;;;5080835;28;19936;-43
2023/07/07 00:50:17;;;;;;;;;;;14.20;99.90;;;;;;5074070;28;19924;-43
2023/07/07 00:52:45;;;;;;;;;;;14.20;99.90;;;;;;5074902;28;19963;-42
2023/07/07 00:55:12;;;;;;;;;;;14.20;99.90;;;;;;5072150;28;19933;-43
2023/07/07 00:57:39;;;;;;;;;;;14.20;99.90;;;;;;5077500;28;19928;-44
2023/07/07 01:00:06;;;;;;;;;;;14.10;99.90;;;;;;5081043;28;20301;-43
2023/07/07 01:02:34;;;;;;;;;;;14.10;99.90;;;;;;5075711;28;19928;-44
2023/07/07 01:05:02;;;;;;;;;;;14.10;99.90;;;;;;5077118;28;20395;-44
2023/07/07 01:07:30;;;;;;;;;;;14.10;99.90;;;;;;5078420;28;19956;-44
2023/07/07 01:09:56;;;;;;;;;;;14.00;99.90;;;;;;5069921;28;20661;-44
2023/07/07 01:12:23;;;;;;;;;;;14.00;99.90;;;;;;5080511;28;19928;-44
2023/07/07 01:14:51;;;;;;;;;;;14.00;99.90;;;;;;5078334;28;19924;-44
2023/07/07 01:17:19;;;;;;;;;;;14.00;99.90;;;;;;5076743;28;20035;-43
2023/07/07 01:19:56;;;;;;;;;;;13.90;99.90;;;;;;5099459;28;20320;-44
2023/07/07 01:22:43;;;;;;;;;;;13.90;99.90;;;;;;5077936;28;20623;-44
2023/07/07 01:25:12;;;;;;;;;;;13.90;99.90;;;;;;5051128;28;19931;-44
2023/07/07 01:27:46;;;;;;;;;;;13.90;99.90;;;;;;5076611;28;20010;-43
2023/07/07 01:30:33;;;;;;;;;;;13.80;99.90;;;;;;5079477;28;19933;-42
2023/07/07 01:33:01;;;;;;;;;;;13.80;99.90;;;;;;5068876;28;20284;-43
2023/07/07 01:35:28;;;;;;;;;;;13.80;99.90;;;;;;5072932;28;19936;-43
2023/07/07 01:37:56;;;;;;;;;;;13.80;99.90;;;;;;5072152;28;19928;-43
2023/07/07 01:40:22;;;;;;;;;;;13.70;99.90;;;;;;5091841;28;19981;-43
2023/07/07 01:42:51;;;;;;;;;;;13.70;99.90;;;;;;5073035;28;19960;-43
2023/07/07 01:45:20;;;;;;;;;;;13.70;99.90;;;;;;5065746;28;19978;-43
2023/07/07 01:47:48;;;;;;;;;;;13.70;99.90;;;;;;5072761;28;19998;-43
2023/07/07 01:50:17;;;;;;;;;;;13.70;99.90;;;;;;5108460;28;19975;-44
2023/07/07 01:52:45;;;;;;;;;;;13.70;99.90;;;;;;5108181;28;19924;-43
2023/07/07 01:55:14;;;;;;;;;;;13.60;99.90;;;;;;5100038;28;19975;-43
2023/07/07 01:57:41;;;;;;;;;;;13.60;99.90;;;;;;5067441;28;19977;-43
2023/07/07 02:00:08;;;;;;;;;;;13.60;99.90;;;;;;5067121;28;19924;-43
2023/07/07 02:02:34;;;;;;;;;;;13.60;99.90;;;;;;5066660;28;20566;-43
2023/07/07 02:05:01;;;;;;;;;;;13.60;99.90;;;;;;5083132;28;20391;-43
2023/07/07 02:07:29;;;;;;;;;;;13.60;99.90;;;;;;5071845;28;19932;-43
2023/07/07 02:09:56;;;;;;;;;;;13.60;99.90;;;;;;5083194;28;20284;-43
2023/07/07 02:12:22;;;;;;;;;;;13.60;99.90;;;;;;5073536;28;19932;-44
2023/07/07 02:14:49;;;;;;;;;;;13.60;99.90;;;;;;5072982;28;19978;-43
2023/07/07 02:17:16;;;;;;;;;;;13.60;99.90;;;;;;5080100;28;19936;-43
2023/07/07 02:19:43;;;;;;;;;;;13.60;99.90;;;;;;5079802;28;19928;-44
2023/07/07 02:22:09;;;;;;;;;;;13.60;99.90;;;;;;5076694;28;19982;-43
2023/07/07 02:24:37;;;;;;;;;;;13.60;99.90;;;;;;5072497;28;20457;-43
2023/07/07 02:27:07;;;;;;;;;;;13.60;99.90;;;;;;5117213;27;19924;-44
2023/07/07 02:29:34;;;;;;;;;;;13.60;99.90;;;;;;5076996;28;20483;-43
2023/07/07 02:32:00;;;;;;;;;;;13.60;99.90;;;;;;5073619;28;20335;-44
2023/07/07 02:34:27;;;;;;;;;;;13.60;99.90;;;;;;5069084;28;20376;-44
2023/07/07 02:36:54;;;;;;;;;;;13.50;99.90;;;;;;5068251;28;20011;-43
2023/07/07 02:39:21;;;;;;;;;;;13.50;99.90;;;;;;5060481;28;19929;-43
2023/07/07 02:41:49;;;;;;;;;;;13.50;99.90;;;;;;5082360;28;19977;-44
2023/07/07 02:44:16;;;;;;;;;;;13.50;99.90;;;;;;5073379;28;19972;-43
2023/07/07 02:46:44;;;;;;;;;;;13.50;99.90;;;;;;5072413;28;19935;-44
2023/07/07 02:49:10;;;;;;;;;;;13.50;99.90;;;;;;5082386;28;20620;-44
2023/07/07 02:51:37;;;;;;;;;;;13.50;99.90;;;;;;5083583;28;19932;-43
2023/07/07 02:54:04;;;;;;;;;;;13.50;99.90;;;;;;5105102;27;19939;-43
2023/07/07 02:56:30;;;;;;;;;;;13.50;99.90;;;;;;5073743;28;19925;-44
2023/07/07 02:58:58;;;;;;;;;;;13.50;99.90;;;;;;5104578;28;20369;-44
2023/07/07 03:01:25;;;;;;;;;;;13.40;99.90;;;;;;5117359;27;19928;-44
2023/07/07 03:03:52;;;;;;;;;;;13.50;99.90;;;;;;5071338;28;20011;-44
2023/07/07 03:06:19;;;;;;;;;;;13.40;99.90;;;;;;5063052;28;19928;-44
2023/07/07 03:08:46;;;;;;;;;;;13.40;99.90;;;;;;5071335;28;20347;-44
2023/07/07 03:11:13;;;;;;;;;;;13.50;99.90;;;;;;5081268;28;19935;-44
2023/07/07 03:13:40;;;;;;;;;;;13.50;99.90;;;;;;5111615;27;19924;-44
2023/07/07 03:16:11;;;;;;;;;;;13.50;99.90;;;;;;5065612;28;19924;-43
2023/07/07 03:18:38;;;;;;;;;;;13.50;99.90;;;;;;5065158;28;20383;-44
2023/07/07 03:21:05;;;;;;;;;;;13.50;99.90;;;;;;5112334;27;20360;-44
2023/07/07 03:23:32;;;;;;;;;;;13.50;99.90;;;;;;5063547;28;19928;-44
2023/07/07 03:26:06;;;;;;;;;;;13.60;99.90;;;;;;5071617;28;19998;-44
2023/07/07 03:28:32;;;;;;;;;;;13.50;99.90;;;;;;5116713;27;19982;-43
2023/07/07 03:30:59;;;;;;;;;;;13.60;99.90;;;;;;5063607;28;19939;-43
2023/07/07 03:33:27;;;;;;;;;;;13.60;99.90;;;;;;5058378;28;19975;-44
2023/07/07 03:35:54;;;;;;;;;;;13.60;99.90;;;;;;5111695;27;20023;-44
2023/07/07 03:38:20;;;;;;;;;;;13.60;99.90;;;;;;5074205;28;19924;-43
2023/07/07 03:40:48;;;;;;;;;;;13.60;99.90;;;;;;5069599;28;21142;-43
2023/07/07 03:43:18;;;;;;;;;;;13.60;99.90;;;;;;5070915;28;19932;-43
2023/07/07 03:45:45;;;;;;;;;;;13.60;99.90;;;;;;5072731;28;19955;-44
2023/07/07 03:48:11;;;;;;;;;;;13.70;99.90;;;;;;5079583;28;19932;-43
2023/07/07 03:50:39;;;;;;;;;;;13.70;99.90;;;;;;5063519;28;19982;-43
2023/07/07 03:53:06;;;;;;;;;;;13.70;99.90;;;;;;5066257;28;19924;-43
2023/07/07 03:55:33;;;;;;;;;;;13.70;99.90;;;;;;5087343;28;19929;-43
2023/07/07 03:57:59;;;;;;;;;;;13.70;99.90;;;;;;5071870;28;19977;-44
2023/07/07 04:00:26;;;;;;;;;;;13.70;99.90;;;;;;5075547;28;19924;-43
2023/07/07 04:02:53;;;;;;;;;;;13.70;99.90;;;;;;5070358;28;19952;-42
2023/07/07 04:05:19;;;;;;;;;;;13.70;99.90;;;;;;5072116;28;19925;-43
2023/07/07 04:07:47;;;;;;;;;;;13.70;99.90;;;;;;5077433;28;19924;-43
2023/07/07 04:10:16;;;;;;;;;;;13.70;99.90;;;;;;5074925;28;19928;-44
2023/07/07 04:12:43;;;;;;;;;;;13.70;99.90;;;;;;5077578;28;19979;-44
2023/07/07 04:15:10;;;;;;;;;;;13.70;99.90;;;;;;5089861;28;19928;-43
2023/07/07 04:17:37;;;;;;;;;;;13.70;99.90;;;;;;5084894;28;19924;-42
2023/07/07 04:20:05;;;;;;;;;;;13.70;99.90;;;;;;5082999;28;19925;-43
2023/07/07 04:22:32;;;;;;;;;;;13.70;99.90;;;;;;5086416;28;19932;-44
2023/07/07 04:25:09;;;;;;;;;;;13.70;99.90;;;;;;5086775;28;19977;-43
2023/07/07 04:27:36;;;;;;;;;;;13.70;99.90;;;;;;5081948;28;20007;-43
2023/07/07 04:30:03;;;;;;;;;;;13.70;99.90;;;;;;5074535;28;19924;-42
2023/07/07 04:32:30;;;;;;;;;;;13.70;99.90;;;;;;5075174;28;20372;-42
2023/07/07 04:34:57;;;;;;;;;;;13.70;99.90;;;;;;5073962;28;19924;-43
2023/07/07 04:37:23;;;;;;;;;;;13.80;99.90;;;;;;5069830;28;19928;-44
2023/07/07 04:39:50;;;;;;;;;;;13.80;99.90;;;;;;5075901;28;19928;-43
2023/07/07 04:42:18;;;;;;;;;;;13.80;99.90;;;;;;5058431;28;19931;-43
2023/07/07 04:44:45;;;;;;;;;;;13.80;99.90;;;;;;5070524;28;20012;-43
2023/07/07 04:47:11;;;;;;;;;;;13.80;99.90;;;;;;5062298;28;20033;-43
2023/07/07 04:49:38;;;;;;;;;;;13.80;99.90;;;;;;5066919;28;19932;-44
2023/07/07 04:52:05;;;;;;;;;;;13.90;99.90;;;;;;5069948;28;19931;-43
2023/07/07 04:54:32;;;;;;;;;;;13.90;99.90;;;;;;5068531;28;19925;-43
2023/07/07 04:56:59;;;;;;;;;;;14.00;99.90;;;;;;5077571;28;19924;-44
2023/07/07 04:59:28;;;;;;;;;;;14.00;99.90;;;;;;5077573;28;19930;-44
2023/07/07 05:01:54;;;;;;;;;;;14.10;99.90;;;;;;5079980;28;19943;-44
2023/07/07 05:04:21;;;;;;;;;;;14.10;99.90;;;;;;5071847;28;19928;-43
2023/07/07 05:06:48;;;;;;;;;;;14.20;99.90;;;;;;5071496;28;20361;-43
2023/07/07 05:09:16;;;;;;;;;;;14.30;99.90;;;;;;5070922;28;19932;-43
2023/07/07 05:11:42;;;;;;;;;;;14.30;99.90;;;;;;5071594;28;19925;-44
2023/07/07 05:14:09;;;;;;;;;;;14.40;99.90;;;;;;5063464;28;19968;-43
2023/07/07 05:16:37;;;;;;;;;;;14.50;99.90;;;;;;5070278;28;20600;-44
2023/07/07 05:19:04;;;;;;;;;;;14.60;99.90;;;;;;5069374;28;19932;-43
2023/07/07 05:21:31;;;;;;;;;;;14.60;99.90;;;;;;5060670;28;20508;-43
2023/07/07 05:23:58;;;;;;;;;;;14.70;99.90;;;;;;5075918;28;20252;-43
2023/07/07 05:26:27;;;;;;;;;;;14.80;99.90;;;;;;5086547;28;19978;-43
2023/07/07 05:28:54;;;;;;;;;;;14.90;99.90;;;;;;5099359;28;19985;-43
2023/07/07 05:31:20;;;;;;;;;;;15.10;99.90;;;;;;5073383;28;20003;-43
2023/07/07 05:33:49;;;;;;;;;;;15.20;99.90;;;;;;5074884;28;19967;-44
2023/07/07 05:36:15;;;;;;;;;;;15.30;99.90;;;;;;5073597;28;20372;-43
2023/07/07 05:38:42;;;;;;;;;;;15.40;99.90;;;;;;5062245;28;19924;-43
2023/07/07 05:41:09;;;;;;;;;;;15.50;99.90;;;;;;5066180;28;19972;-43
2023/07/07 05:43:36;;;;;;;;;;;15.60;99.90;;;;;;5065716;28;20023;-43
2023/07/07 05:46:03;;;;;;;;;;;15.70;99.90;;;;;;5076590;28;19931;-44
2023/07/07 05:48:30;;;;;;;;;;;15.90;99.90;;;;;;5112104;27;20420;-43
2023/07/07 05:50:58;;;;;;;;;;;16.00;99.90;;;;;;5066749;28;19926;-44
2023/07/07 05:53:25;;;;;;;;;;;16.20;99.90;;;;;;5076054;28;19924;-43
2023/07/07 05:55:52;;;;;;;;;;;16.30;99.90;;;;;;5074190;28;20360;-43
2023/07/07 05:58:18;;;;;;;;;;;16.40;99.90;;;;;;5070368;28;19924;-43
2023/07/07 06:00:45;;;;;;;;;;;16.50;99.90;;;;;;5072348;28;19940;-43
2023/07/07 06:03:12;;;;;;;;;;;16.70;99.90;;;;;;5062361;28;19925;-44
2023/07/07 06:05:39;;;;;;;;;;;16.80;99.90;;;;;;5066478;28;19929;-43
2023/07/07 06:08:06;;;;;;;;;;;16.90;99.90;;;;;;5073005;28;19964;-43
2023/07/07 06:10:33;;;;;;;;;;;17.10;99.90;;;;;;5069771;28;20379;-44
2023/07/07 06:13:00;;;;;;;;;;;17.20;99.90;;;;;;5067192;28;20019;-43
2023/07/07 06:15:27;;;;;;;;;;;17.30;99.90;;;;;;5066740;28;19968;-43
2023/07/07 06:17:54;;;;;;;;;;;17.30;99.90;;;;;;5069590;28;19932;-44
2023/07/07 06:20:20;;;;;;;;;;;17.50;99.90;;;;;;5080248;28;20445;-43
2023/07/07 06:22:47;;;;;;;;;;;17.60;99.90;;;;;;5081769;28;20402;-42
2023/07/07 06:25:15;;;;;;;;;;;17.80;99.90;;;;;;5101666;27;19928;-42
2023/07/07 06:27:42;;;;;;;;;;;17.90;99.90;;;;;;5111115;27;20342;-43
2023/07/07 06:30:10;;;;;;;;;;;18.00;99.90;;;;;;5084168;28;19976;-43
2023/07/07 06:32:37;;;;;;;;;;;18.10;99.90;;;;;;5084718;28;19924;-43
2023/07/07 06:35:04;;;;;;;;;;;18.30;99.90;;;;;;5107617;27;19978;-42
2023/07/07 06:37:31;;;;;;;;;;;18.50;99.90;;;;;;5081379;28;19924;-43
2023/07/07 06:39:58;;;;;;;;;;;18.60;99.90;;;;;;5076107;28;19924;-43
2023/07/07 06:42:25;;;;;;;;;;;18.80;99.90;;;;;;5073240;28;20304;-43
2023/07/07 06:44:52;;;;;;;;;;;18.90;99.90;;;;;;5072944;28;20361;-43
2023/07/07 06:47:19;;;;;;;;;;;19.10;99.90;;;;;;5081357;28;19925;-43
2023/07/07 06:49:46;;;;;;;;;;;19.30;99.90;;;;;;5071319;28;19928;-43
2023/07/07 06:52:12;;;;;;;;;;;19.40;99.90;;;;;;5066032;28;20453;-41
2023/07/07 06:54:39;;;;;;;;;;;19.60;99.90;;;;;;5077904;28;19991;-43
2023/07/07 06:57:06;;;;;;;;;;;19.70;99.90;;;;;;5078687;28;19985;-43
2023/07/07 06:59:35;;;;;;;;;;;19.90;99.90;;;;;;5080596;28;19928;-43
2023/07/07 07:02:01;;;;;;;;;;;20.00;99.90;;;;;;5072336;28;19936;-44
2023/07/07 07:04:28;;;;;;;;;;;20.10;99.90;;;;;;5073342;28;20219;-43
2023/07/07 07:06:55;;;;;;;;;;;20.20;99.90;;;;;;5077269;28;19936;-43
2023/07/07 07:09:22;;;;;;;;;;;20.30;99.90;;;;;;5107693;27;19978;-43
2023/07/07 07:11:49;;;;;;;;;;;20.40;99.90;;;;;;5086238;28;19924;-43
2023/07/07 07:14:15;;;;;;;;;;;20.50;99.90;;;;;;5080043;28;19982;-43
2023/07/07 07:16:45;;;;;;;;;;;20.70;99.90;;;;;;5057120;28;20017;-43
2023/07/07 07:19:11;;;;;;;;;;;20.80;99.90;;;;;;5074869;28;19924;-44
2023/07/07 07:21:38;;;;;;;;;;;21.00;99.90;;;;;;5077280;28;19931;-42
2023/07/07 07:24:05;;;;;;;;;;;21.20;99.90;;;;;;5074590;28;19928;-43
2023/07/07 07:26:32;;;;;;;;;;;21.30;99.90;;;;;;5061921;28;20372;-44
2023/07/07 07:28:58;;;;;;;;;;;21.50;99.90;;;;;;5085729;28;19924;-42
2023/07/07 07:31:26;;;;;;;;;;;21.60;99.90;;;;;;5079879;28;19924;-44
2023/07/07 07:33:54;;;;;;;;;;;21.70;99.90;;;;;;5073482;28;19932;-44
2023/07/07 07:36:21;;;;;;;;;;;21.80;99.90;;;;;;5071822;28;20336;-43
2023/07/07 07:38:48;;;;;;;;;;;22.00;99.90;;;;;;5071895;28;19931;-44
2023/07/07 07:41:15;;;;;;;;;;;22.20;99.90;;;;;;5071552;28;20324;-43
2023/07/07 07:43:41;;;;;;;;;;;22.40;99.90;;;;;;5067497;28;20047;-43
2023/07/07 07:46:08;;;;;;;;;;;22.50;99.90;;;;;;5102590;27;19928;-43
2023/07/07 07:48:35;;;;;;;;;;;22.70;99.90;;;;;;5068235;28;20293;-44
2023/07/07 07:51:03;;;;;;;;;;;22.90;98.90;;;;;;5061016;28;20364;-44
2023/07/07 07:53:29;;;;;;;;;;;23.00;99.90;;;;;;5096757;27;19928;-45
2023/07/07 07:55:56;;;;;;;;;;;23.20;99.60;;;;;;5066336;28;19960;-44
2023/07/07 07:58:23;;;;;;;;;;;23.40;99.90;;;;;;5054865;28;19928;-44
2023/07/07 08:00:49;;;;;;;;;;;23.60;99.30;;;;;;5068742;28;19928;-44
2023/07/07 08:03:16;;;;;;;;;;;23.80;98.50;;;;;;5073391;28;19932;-44
2023/07/07 08:05:43;;;;;;;;;;;23.90;97.50;;;;;;5061503;28;19925;-44
2023/07/07 08:08:11;;;;;;;;;;;24.10;95.90;;;;;;5070841;28;19928;-44
2023/07/07 08:10:39;;;;;;;;;;;24.10;93.70;;;;;;5050001;28;19924;-44
2023/07/07 08:13:06;;;;;;;;;;;24.10;93.40;;;;;;5062561;28;19924;-43
2023/07/07 08:15:33;;;;;;;;;;;24.20;93.40;;;;;;5061235;28;19925;-41
2023/07/07 08:17:59;;;;;;;;;;;24.30;94.80;;;;;;5102462;27;19947;-43
2023/07/07 08:20:27;;;;;;;;;;;24.50;94.20;;;;;;5086273;28;19924;-43
2023/07/07 08:22:54;;;;;;;;;;;24.60;93.20;;;;;;5071068;28;20019;-43
2023/07/07 08:25:22;;;;;;;;;;;24.70;93.30;;;;;;5085751;28;19975;-44
2023/07/07 08:27:50;;;;;;;;;;;24.80;93.40;;;;;;5083566;28;19928;-44
2023/07/07 08:30:17;;;;;;;;;;;25.00;92.30;;;;;;5096533;28;19925;-44
2023/07/07 08:32:44;;;;;;;;;;;25.00;90.40;;;;;;5082452;28;19963;-43
2023/07/07 08:35:10;;;;;;;;;;;25.10;90.80;;;;;;5075373;28;19924;-44
2023/07/07 08:37:37;;;;;;;;;;;25.10;89.90;;;;;;5069208;28;19986;-43
2023/07/07 08:40:04;;;;;;;;;;;25.20;91.20;;;;;;5107853;27;20399;-43
2023/07/07 08:42:33;;;;;;;;;;;25.40;82.40;;;;;;5066118;28;19925;-44
2023/07/07 08:45:00;;;;;;;;;;;25.40;86.10;;;;;;5087994;28;20276;-44
2023/07/07 08:47:39;;;;;;;;;;;25.50;81.50;;;;;;5079548;28;19928;-44
2023/07/07 08:50:07;;;;;;;;;;;25.50;82.40;;;;;;5087519;28;19924;-44
2023/07/07 08:52:36;;;;;;;;;;;25.60;78.70;;;;;;5104411;27;19978;-45
2023/07/07 08:55:06;;;;;;;;;;;25.70;79.50;;;;;;5088837;28;19971;-44
2023/07/07 08:57:42;;;;;;;;;;;25.80;78.10;;;;;;5076862;28;19960;-43
2023/07/07 09:00:11;;;;;;;;;;;25.90;75.60;;;;;;5069676;28;19928;-45
2023/07/07 09:02:48;;;;;;;;;;;26.00;75.70;;;;;;5060401;28;20320;-44
2023/07/07 09:05:17;;;;;;;;;;;26.00;71.30;;;;;;5069455;28;20392;-43
2023/07/07 09:07:50;;;;;;;;;;;26.00;73.20;;;;;;5066791;28;19925;-44
2023/07/07 09:10:28;;;;;;;;;;;26.00;73.70;;;;;;5057891;28;19950;-44
2023/07/07 09:12:57;;;;;;;;;;;26.10;72.40;;;;;;5066463;28;19943;-45
2023/07/07 09:15:25;;;;;;;;;;;26.20;76.00;;;;;;5054607;28;19930;-45
2023/07/07 09:17:53;;;;;;;;;;;26.30;75.90;;;;;;5054361;28;19924;-43
2023/07/07 09:20:20;;;;;;;;;;;26.60;77.30;;;;;;5078675;28;19928;-44
2023/07/07 09:22:47;;;;;;;;;;;26.80;72.90;;;;;;5076668;28;19941;-43
2023/07/07 09:25:16;;;;;;;;;;;27.00;68.10;;;;;;5083972;28;20040;-44
2023/07/07 09:27:43;;;;;;;;;;;27.00;70.30;;;;;;5075498;28;19952;-44
2023/07/07 09:30:14;;;;;;;;;;;27.10;73.90;;;;;;5076412;28;19968;-45
2023/07/07 09:32:41;;;;;;;;;;;27.10;69.40;;;;;;5069895;28;19933;-45
2023/07/07 09:35:10;;;;;;;;;;;27.30;71.60;;;;;;5052492;28;19933;-45
2023/07/07 09:37:38;;;;;;;;;;;27.40;74.20;;;;;;5063003;28;19924;-45
2023/07/07 09:40:08;;;;;;;;;;;27.60;70.00;;;;;;5079075;28;19928;-45
2023/07/07 09:42:39;;;;;;;;;;;27.70;69.10;;;;;;5079432;28;20367;-45
2023/07/07 09:45:09;;;;;;;;;;;27.80;69.80;;;;;;5079795;28;20384;-45
2023/07/07 09:47:39;;;;;;;;;;;27.80;69.10;;;;;;5089807;28;19989;-44
2023/07/07 09:50:08;;;;;;;;;;;28.00;69.70;;;;;;5080948;28;20281;-44
2023/07/07 09:52:37;;;;;;;;;;;28.20;70.70;;;;;;5070312;28;19959;-44
2023/07/07 09:55:09;;;;;;;;;;;28.40;70.80;;;;;;5067625;28;19930;-44
2023/07/07 09:57:36;;;;;;;;;;;28.40;69.10;;;;;;5074728;28;20026;-44
2023/07/07 10:00:04;;;;;;;;;;;28.50;69.90;;;;;;5068138;28;20104;-44
2023/07/07 10:02:31;;;;;;;;;;;28.60;67.00;;;;;;5081610;28;19924;-44
2023/07/07 10:05:00;;;;;;;;;;;28.70;67.20;;;;;;5070543;28;19947;-42
2023/07/07 10:07:27;;;;;;;;;;;28.70;64.90;;;;;;5067616;28;19932;-45
2023/07/07 10:09:54;;;;;;;;;;;28.60;65.30;;;;;;5075917;28;19969;-44
2023/07/07 10:12:20;;;;;;;;;;;28.60;63.60;;;;;;5072580;28;19925;-45
2023/07/07 10:14:47;;;;;;;;;;;28.50;67.60;;;;;;5071789;28;19928;-45
2023/07/07 10:17:15;;;;;;;;;;;28.60;68.60;;;;;;5077190;28;20335;-42
2023/07/07 10:19:42;;;;;;;;;;;28.80;63.50;;;;;;5066473;28;20356;-43
2023/07/07 10:22:10;;;;;;;;;;;28.90;68.50;;;;;;5063998;28;19924;-43
2023/07/07 10:24:37;;;;;;;;;;;29.00;65.30;;;;;;5073319;28;19924;-44
2023/07/07 10:27:04;;;;;;;;;;;29.10;63.60;;;;;;5076340;28;19994;-43
2023/07/07 10:29:33;;;;;;;;;;;29.10;65.10;;;;;;5080950;28;19924;-43
2023/07/07 10:32:00;;;;;;;;;;;29.10;66.80;;;;;;5105507;27;19930;-44
2023/07/07 10:34:32;;;;;;;;;;;29.20;63.20;;;;;;5075808;28;19929;-43
2023/07/07 10:36:59;;;;;;;;;;;29.20;67.00;;;;;;5068295;28;20376;-44
2023/07/07 10:39:28;;;;;;;;;;;29.20;63.60;;;;;;5057212;28;19933;-44
2023/07/07 10:41:55;;;;;;;;;;;29.20;63.30;;;;;;5073372;28;19932;-44
2023/07/07 10:44:23;;;;;;;;;;;29.30;63.10;;;;;;5052157;28;20285;-44
2023/07/07 10:46:50;;;;;;;;;;;29.40;61.80;;;;;;5069080;28;20430;-44
2023/07/07 10:49:17;;;;;;;;;;;29.50;63.10;;;;;;5075221;28;19928;-44
2023/07/07 10:51:46;;;;;;;;;;;29.50;64.20;;;;;;5063320;28;19954;-44
2023/07/07 10:54:13;;;;;;;;;;;29.60;60.00;;;;;;5083934;28;19971;-45
2023/07/07 10:56:42;;;;;;;;;;;29.60;62.60;;;;;;5059161;28;19990;-45
2023/07/07 10:59:24;;;;;;;;;;;29.70;59.50;;;;;;5064293;28;19931;-45
2023/07/07 11:01:54;;;;;;;;;;;29.70;57.80;;;;;;5065910;28;19950;-42
2023/07/07 11:04:24;;;;;;;;;;;29.70;59.40;;;;;;5062789;28;19986;-45
2023/07/07 11:06:59;;;;;;;;;;;29.70;62.50;;;;;;5072710;28;19924;-44
2023/07/07 11:09:49;;;;;;;;;;;29.90;63.10;;;;;;5072038;28;19947;-44
2023/07/07 11:12:20;;;;;;;;;;;30.00;60.50;;;;;;5106686;28;19928;-45
2023/07/07 11:14:59;;;;;;;;;;;30.00;58.60;;;;;;5073284;28;20030;-45
2023/07/07 11:17:30;;;;;;;;;;;30.00;59.90;;;;;;5100985;27;19928;-45
2023/07/07 11:20:07;;;;;;;;;;;30.10;56.20;;;;;;5088257;28;19928;-45
2023/07/07 11:22:42;;;;;;;;;;;30.10;57.90;;;;;;5067489;28;19931;-45
2023/07/07 11:25:16;;;;;;;;;;;30.10;59.80;;;;;;5076999;28;19960;-45
2023/07/07 11:27:57;;;;;;;;;;;30.20;56.40;;;;;;5069055;28;20026;-45
2023/07/07 11:30:25;;;;;;;;;;;30.30;55.30;;;;;;5076374;28;19978;-45
2023/07/07 11:32:55;;;;;;;;;;;30.40;57.90;;;;;;5063790;28;20008;-44
2023/07/07 11:35:26;;;;;;;;;;;30.50;60.00;;;;;;5079275;28;20288;-44
2023/07/07 11:37:56;;;;;;;;;;;30.70;55.20;;;;;;5061923;28;19978;-45
2023/07/07 11:40:29;;;;;;;;;;;30.70;56.40;;;;;;5080680;28;19980;-45
2023/07/07 11:43:11;;;;;;;;;;;30.70;55.60;;;;;;5070855;28;20189;-45
2023/07/07 11:45:41;;;;;;;;;;;30.60;55.50;;;;;;5070554;28;19924;-44
2023/07/07 11:48:17;;;;;;;;;;;30.60;55.60;;;;;;5068680;28;20418;-45
2023/07/07 11:50:54;;;;;;;;;;;30.40;54.30;;;;;;5086197;28;19977;-47
2023/07/07 11:53:27;;;;;;;;;;;30.40;57.40;;;;;;5073031;28;19986;-46
2023/07/07 11:55:56;;;;;;;;;;;30.60;56.80;;;;;;5063255;28;19929;-45
2023/07/07 11:58:26;;;;;;;;;;;30.70;54.00;;;;;;5064253;28;19931;-46
2023/07/07 12:00:58;;;;;;;;;;;30.60;56.00;;;;;;5088859;28;20015;-46
2023/07/07 12:03:40;;;;;;;;;;;30.60;54.90;;;;;;5085731;28;19931;-45
2023/07/07 12:06:11;;;;;;;;;;;30.80;57.80;;;;;;5068513;28;20014;-46
2023/07/07 12:08:40;;;;;;;;;;;31.00;54.50;;;;;;5061332;28;19924;-45
2023/07/07 12:11:07;;;;;;;;;;;31.00;54.70;;;;;;5072623;28;19928;-46
2023/07/07 12:13:35;;;;;;;;;;;31.10;55.00;;;;;;5105406;27;19925;-46
2023/07/07 12:16:03;;;;;;;;;;;31.20;55.80;;;;;;5066370;28;19936;-46
2023/07/07 12:18:31;;;;;;;;;;;31.20;51.50;;;;;;5066821;28;19924;-46
2023/07/07 12:20:59;;;;;;;;;;;31.10;55.60;;;;;;5072131;28;20311;-44
2023/07/07 12:23:30;;;;;;;;;;;31.20;53.30;;;;;;5081225;28;19985;-44
2023/07/07 12:25:57;;;;;;;;;;;31.30;52.90;;;;;;5075205;28;20341;-46
2023/07/07 12:28:23;;;;;;;;;;;31.40;49.20;;;;;;5069629;28;20014;-46
2023/07/07 12:30:50;;;;;;;;;;;31.30;52.50;;;;;;5070552;28;19970;-46
2023/07/07 12:33:18;;;;;;;;;;;31.40;52.80;;;;;;5108310;27;19974;-44
2023/07/07 12:35:46;;;;;;;;;;;31.40;53.10;;;;;;5077194;28;19924;-45
2023/07/07 12:38:15;;;;;;;;;;;31.40;52.60;;;;;;5073480;28;20288;-45
2023/07/07 12:40:42;;;;;;;;;;;31.50;53.60;;;;;;5080554;28;20376;-44
2023/07/07 12:43:19;;;;;;;;;;;31.50;50.10;;;;;;5074518;28;19924;-45
2023/07/07 12:45:45;;;;;;;;;;;31.50;49.80;;;;;;5078763;28;20435;-44
2023/07/07 12:48:15;;;;;;;;;;;31.40;52.90;;;;;;5088067;28;19935;-45
2023/07/07 12:50:43;;;;;;;;;;;31.50;50.60;;;;;;5080080;28;19925;-45
2023/07/07 12:53:11;;;;;;;;;;;31.50;49.80;;;;;;5078781;28;20930;-44
2023/07/07 12:55:38;;;;;;;;;;;31.50;52.50;;;;;;5066341;28;20395;-45
2023/07/07 12:58:27;;;;;;;;;;;31.70;52.90;;;;;;5099398;28;19929;-45
2023/07/07 13:01:04;;;;;;;;;;;31.70;47.00;;;;;;5076216;28;19924;-44
2023/07/07 13:03:32;;;;;;;;;;;31.70;52.00;;;;;;5115076;27;20305;-44
2023/07/07 13:06:00;;;;;;;;;;;31.80;52.60;;;;;;5080468;28;19928;-44
2023/07/07 13:08:34;;;;;;;;;;;32.00;48.70;;;;;;5072354;28;19977;-44
2023/07/07 13:11:03;;;;;;;;;;;32.00;49.70;;;;;;5071660;28;19956;-45
2023/07/07 13:13:29;;;;;;;;;;;31.80;46.70;;;;;;5071684;28;19977;-45
2023/07/07 13:15:56;;;;;;;;;;;31.60;49.10;;;;;;5074576;28;20023;-45
2023/07/07 13:18:23;;;;;;;;;;;31.70;52.50;;;;;;5069236;28;20868;-45
2023/07/07 13:20:50;;;;;;;;;;;31.70;50.80;;;;;;5065026;28;19925;-45
2023/07/07 13:23:19;;;;;;;;;;;31.80;51.50;;;;;;5068942;28;19970;-44
2023/07/07 13:25:46;;;;;;;;;;;31.90;48.00;;;;;;5066756;28;19925;-43
2023/07/07 13:28:13;;;;;;;;;;;32.00;51.00;;;;;;5063117;28;20015;-45
2023/07/07 13:30:42;;;;;;;;;;;32.20;51.00;;;;;;5065655;28;19999;-45
2023/07/07 13:33:09;;;;;;;;;;;32.30;52.20;;;;;;5066335;28;20384;-45
2023/07/07 13:35:35;;;;;;;;;;;32.50;50.40;;;;;;5061309;28;19928;-43
2023/07/07 13:38:06;;;;;;;;;;;32.50;47.40;;;;;;5064408;28;19936;-44
2023/07/07 13:40:36;;;;;;;;;;;32.30;45.60;;;;;;5065328;28;19928;-44
2023/07/07 13:43:02;;;;;;;;;;;32.20;47.40;;;;;;5076873;28;19937;-44
2023/07/07 13:45:29;;;;;;;;;;;32.30;49.40;;;;;;5084476;28;20018;-45
2023/07/07 13:47:58;;;;;;;;;;;32.30;48.70;;;;;;5072816;28;20010;-44
2023/07/07 13:50:25;;;;;;;;;;;32.50;47.70;;;;;;5062414;28;19925;-45
2023/07/07 13:52:53;;;;;;;;;;;32.50;46.90;;;;;;5065956;28;19951;-43
2023/07/07 13:55:20;;;;;;;;;;;32.50;46.80;;;;;;5070937;28;20330;-45
2023/07/07 13:57:48;;;;;;;;;;;32.40;47.00;;;;;;5074227;28;19924;-44
2023/07/07 14:00:19;;;;;;;;;;;32.50;47.30;;;;;;5072251;28;19924;-44
2023/07/07 14:02:46;;;;;;;;;;;32.30;44.10;;;;;;5063323;28;20613;-44
2023/07/07 14:05:15;;;;;;;;;;;32.30;47.00;;;;;;5061089;28;19951;-45
2023/07/07 14:07:42;;;;;;;;;;;32.20;45.00;;;;;;5067320;28;19991;-45
2023/07/07 14:10:26;;;;;;;;;;;32.20;46.90;;;;;;5074472;28;19928;-45
2023/07/07 14:12:54;;;;;;;;;;;32.40;49.70;;;;;;5077014;28;19924;-45
2023/07/07 14:15:22;;;;;;;;;;;32.60;46.30;;;;;;5059844;28;20387;-45
2023/07/07 14:17:49;;;;;;;;;;;32.70;46.70;;;;;;5069113;28;20338;-45
2023/07/07 14:20:17;;;;;;;;;;;32.70;48.60;;;;;;5071395;28;19951;-44
2023/07/07 14:22:44;;;;;;;;;;;32.90;47.40;;;;;;5077298;28;19928;-45